Time;durP1;ratioP1;P1;durP2;ratioP2;P2;SDS_P1;SDS_P2;PMS_P1;PMS_P2;Temp;Humidity;BMP_temperature;BMP_pressure;BME280_temperature;BME280_humidity;BME280_pressure;Samples;Min_cycle;Max_cycle;Signal;HPM_P1;HPM_P2
2022/11/14 00:02:36;;;;;;;9.70;5.07;;;;;;;;;;5049535;28;20261;-69
2022/11/14 00:05:22;;;;;;;6.97;5.00;;;;;;;;;;5048875;28;20268;-69
2022/11/14 00:08:20;;;;;;;7.90;5.10;;;;;;;;;;5049756;28;20260;-69
2022/11/14 00:11:04;;;;;;;7.03;5.27;;;;;;;;;;5049289;28;20600;-69
2022/11/14 00:13:50;;;;;;;9.10;5.50;;;;;;;;;;5049197;28;20198;-69
2022/11/14 00:16:35;;;;;;;7.90;4.83;;;;;;;;;;5060484;28;20271;-69
2022/11/14 00:19:19;;;;;;;7.50;5.00;;;;;;;;;;5069281;28;20196;-70
2022/11/14 00:22:05;;;;;;;8.83;5.00;;;;;;;;;;5054693;28;20245;-69
2022/11/14 00:24:50;;;;;;;8.77;5.30;;;;;;;;;;5069449;28;20561;-69
2022/11/14 00:27:35;;;;;;;8.93;4.83;;;;;;;;;;5054982;28;20344;-69
2022/11/14 00:30:21;;;;;;;8.93;5.70;;;;;;;;;;5070153;28;20205;-69
2022/11/14 00:33:06;;;;;;;7.80;5.00;;;;;;;;;;5049455;28;20229;-69
2022/11/14 00:35:55;;;;;;;8.77;5.20;;;;;;;;;;5049490;28;20570;-69
2022/11/14 00:38:40;;;;;;;8.20;5.27;;;;;;;;;;5034347;28;20550;-69
2022/11/14 00:41:25;;;;;;;8.13;5.43;;;;;;;;;;5049114;28;20206;-69
2022/11/14 00:44:10;;;;;;;8.87;5.40;;;;;;;;;;5020423;28;20575;-70
2022/11/14 00:46:56;;;;;;;10.23;5.87;;;;;;;;;;5049268;28;20276;-70
2022/11/14 00:49:41;;;;;;;9.27;5.30;;;;;;;;;;5049168;28;20198;-70
2022/11/14 00:52:27;;;;;;;9.90;5.93;;;;;;;;;;5048898;28;20194;-70
2022/11/14 00:55:11;;;;;;;7.33;5.17;;;;;;;;;;5048547;28;20341;-70
2022/11/14 00:57:57;;;;;;;8.90;5.67;;;;;;;;;;5049291;28;20186;-70
2022/11/14 01:00:42;;;;;;;9.73;5.63;;;;;;;;;;5049586;28;20279;-72
2022/11/14 01:03:28;;;;;;;9.43;5.87;;;;;;;;;;5049242;28;20577;-70
2022/11/14 01:06:14;;;;;;;10.17;5.33;;;;;;;;;;5034469;28;20198;-70
2022/11/14 01:08:59;;;;;;;7.80;5.10;;;;;;;;;;5049014;28;20193;-70
2022/11/14 01:11:45;;;;;;;10.33;5.60;;;;;;;;;;5056305;28;20209;-70
2022/11/14 01:14:30;;;;;;;10.87;5.77;;;;;;;;;;5069191;28;20731;-70
2022/11/14 01:17:16;;;;;;;10.23;5.67;;;;;;;;;;5068748;28;20560;-70
2022/11/14 01:20:01;;;;;;;12.13;6.90;;;;;;;;;;5069054;28;20867;-70
2022/11/14 01:22:46;;;;;;;8.90;6.10;;;;;;;;;;5053814;28;20233;-70
2022/11/14 01:25:32;;;;;;;8.40;5.20;;;;;;;;;;5069320;28;20604;-70
2022/11/14 01:28:17;;;;;;;6.80;5.37;;;;;;;;;;5050257;28;20209;-70
2022/11/14 01:31:09;;;;;;;8.27;5.60;;;;;;;;;;5034173;28;20194;-71
2022/11/14 01:33:54;;;;;;;8.00;4.70;;;;;;;;;;5033967;28;20258;-70
2022/11/14 01:36:40;;;;;;;8.07;4.87;;;;;;;;;;5049204;28;20227;-70
2022/11/14 01:39:25;;;;;;;5.43;4.60;;;;;;;;;;5048937;28;20259;-70
2022/11/14 01:42:10;;;;;;;7.57;4.67;;;;;;;;;;5033814;28;20609;-70
2022/11/14 01:44:55;;;;;;;6.37;4.10;;;;;;;;;;5049155;28;20212;-70
2022/11/14 01:47:40;;;;;;;5.73;4.10;;;;;;;;;;5048851;28;20205;-70
2022/11/14 01:50:26;;;;;;;6.73;3.67;;;;;;;;;;5048859;28;20205;-70
2022/11/14 01:53:11;;;;;;;5.30;3.70;;;;;;;;;;5033060;28;20217;-70
2022/11/14 01:55:58;;;;;;;6.50;3.90;;;;;;;;;;5048786;28;20206;-70
2022/11/14 01:58:44;;;;;;;4.43;3.60;;;;;;;;;;5019654;28;20317;-70
2022/11/14 02:01:30;;;;;;;6.07;3.90;;;;;;;;;;5033662;28;20202;-73
2022/11/14 02:04:26;;;;;;;5.03;3.23;;;;;;;;;;5033757;28;20295;-70
2022/11/14 02:07:11;;;;;;;6.10;3.40;;;;;;;;;;5034845;28;20421;-70
2022/11/14 02:09:57;;;;;;;5.47;3.63;;;;;;;;;;5037178;28;20274;-70
2022/11/14 02:12:42;;;;;;;6.23;3.40;;;;;;;;;;5052468;28;20205;-70
2022/11/14 02:15:26;;;;;;;6.20;3.20;;;;;;;;;;5054035;28;20229;-69
2022/11/14 02:18:12;;;;;;;6.07;3.50;;;;;;;;;;5071491;28;20205;-69
2022/11/14 02:20:57;;;;;;;4.77;3.23;;;;;;;;;;5071907;28;20283;-70
2022/11/14 02:23:43;;;;;;;4.53;2.83;;;;;;;;;;5050573;28;20207;-69
2022/11/14 02:26:28;;;;;;;6.33;3.43;;;;;;;;;;5050924;28;20210;-69
2022/11/14 02:29:19;;;;;;;4.83;3.27;;;;;;;;;;5050612;28;20205;-69
2022/11/14 02:32:04;;;;;;;6.93;3.30;;;;;;;;;;5050888;28;20201;-69
2022/11/14 02:34:54;;;;;;;5.47;3.17;;;;;;;;;;5052058;28;20210;-69
2022/11/14 02:37:39;;;;;;;3.73;2.90;;;;;;;;;;5051543;28;20225;-69
2022/11/14 02:40:43;;;;;;;4.43;2.60;;;;;;;;;;5051450;28;20189;-69
2022/11/14 02:43:28;;;;;;;6.33;2.87;;;;;;;;;;5051422;28;20233;-69
2022/11/14 02:46:13;;;;;;;4.93;2.70;;;;;;;;;;5050928;28;20202;-69
2022/11/14 02:48:58;;;;;;;5.07;3.00;;;;;;;;;;5051274;28;21042;-69
2022/11/14 02:52:01;;;;;;;6.50;3.50;;;;;;;;;;5051514;28;20244;-70
2022/11/14 02:54:47;;;;;;;4.80;3.70;;;;;;;;;;5029924;28;20334;-69
2022/11/14 02:57:49;;;;;;;5.90;3.87;;;;;;;;;;5031066;28;20218;-69
2022/11/14 03:00:34;;;;;;;4.83;3.57;;;;;;;;;;5030910;28;20713;-69
2022/11/14 03:03:37;;;;;;;5.17;3.50;;;;;;;;;;5031783;28;20237;-69
2022/11/14 03:06:23;;;;;;;6.60;4.20;;;;;;;;;;5030698;28;20276;-69
2022/11/14 03:09:08;;;;;;;5.83;4.03;;;;;;;;;;5049450;28;20333;-70
2022/11/14 03:11:53;;;;;;;7.47;4.27;;;;;;;;;;5051221;28;20673;-70
2022/11/14 03:14:38;;;;;;;8.80;5.00;;;;;;;;;;5051257;28;20249;-70
2022/11/14 03:17:24;;;;;;;10.40;4.87;;;;;;;;;;5050558;28;20218;-69
2022/11/14 03:20:27;;;;;;;9.40;5.23;;;;;;;;;;5038676;28;20239;-70
2022/11/14 03:23:12;;;;;;;9.93;5.73;;;;;;;;;;5050472;28;20193;-70
2022/11/14 03:25:58;;;;;;;9.83;6.00;;;;;;;;;;5027426;28;20206;-69
2022/11/14 03:28:44;;;;;;;9.97;6.50;;;;;;;;;;5030681;28;20737;-69
2022/11/14 03:31:29;;;;;;;11.13;6.87;;;;;;;;;;5030831;28;20269;-69
2022/11/14 03:34:14;;;;;;;7.67;5.93;;;;;;;;;;5026509;28;20249;-69
2022/11/14 03:37:01;;;;;;;9.70;6.17;;;;;;;;;;5030493;28;20234;-69
2022/11/14 03:39:46;;;;;;;9.80;6.07;;;;;;;;;;5031134;28;20252;-69
2022/11/14 03:42:34;;;;;;;9.00;5.50;;;;;;;;;;5036163;28;20213;-69
2022/11/14 03:45:19;;;;;;;9.97;6.43;;;;;;;;;;5035629;28;20239;-69
2022/11/14 03:48:05;;;;;;;10.50;7.07;;;;;;;;;;5050503;28;20198;-69
2022/11/14 03:50:50;;;;;;;10.93;7.07;;;;;;;;;;5050084;28;20205;-69
2022/11/14 03:53:53;;;;;;;10.87;7.57;;;;;;;;;;5059649;28;20269;-70
2022/11/14 03:56:38;;;;;;;13.30;7.50;;;;;;;;;;5069782;28;21081;-69
2022/11/14 03:59:23;;;;;;;10.43;7.27;;;;;;;;;;5069080;28;20208;-69
2022/11/14 04:02:08;;;;;;;10.37;7.27;;;;;;;;;;5070122;28;20197;-69
2022/11/14 04:05:12;;;;;;;11.10;7.10;;;;;;;;;;5070142;28;20181;-69
2022/11/14 04:07:58;;;;;;;11.40;7.23;;;;;;;;;;5054872;28;20966;-66
2022/11/14 04:10:45;;;;;;;11.97;7.17;;;;;;;;;;5064081;28;20306;-68
2022/11/14 04:13:30;;;;;;;12.03;7.37;;;;;;;;;;5059847;28;20201;-70
2022/11/14 04:16:33;;;;;;;11.73;6.97;;;;;;;;;;5044484;28;20309;-70
2022/11/14 04:19:18;;;;;;;9.77;6.87;;;;;;;;;;5066054;28;20283;-71
2022/11/14 04:22:03;;;;;;;10.10;6.93;;;;;;;;;;5066710;28;21034;-70
2022/11/14 04:24:48;;;;;;;12.30;7.17;;;;;;;;;;5045051;28;20229;-70
2022/11/14 04:27:34;;;;;;;11.43;6.93;;;;;;;;;;5066369;28;20200;-68
2022/11/14 04:30:20;;;;;;;10.30;6.83;;;;;;;;;;5052287;28;20214;-70
2022/11/14 04:33:23;;;;;;;13.23;7.63;;;;;;;;;;5066468;28;20196;-70
2022/11/14 04:36:08;;;;;;;12.40;7.70;;;;;;;;;;5066737;28;20194;-70
2022/11/14 04:38:54;;;;;;;10.33;7.47;;;;;;;;;;5036798;28;20196;-70
2022/11/14 04:41:39;;;;;;;11.37;7.83;;;;;;;;;;5045360;28;20213;-72
2022/11/14 04:44:24;;;;;;;11.97;8.20;;;;;;;;;;5058276;28;20265;-70
2022/11/14 04:47:09;;;;;;;11.37;7.27;;;;;;;;;;5066219;28;20205;-70
2022/11/14 04:50:12;;;;;;;13.93;8.70;;;;;;;;;;5065673;28;20220;-69
2022/11/14 04:52:57;;;;;;;13.00;8.07;;;;;;;;;;5031162;28;20749;-70
2022/11/14 04:55:44;;;;;;;12.43;8.53;;;;;;;;;;5035976;28;20193;-70
2022/11/14 04:58:30;;;;;;;14.17;9.37;;;;;;;;;;5051135;28;20298;-70
2022/11/14 05:01:32;;;;;;;14.63;8.87;;;;;;;;;;5053887;28;20251;-67
2022/11/14 05:04:18;;;;;;;15.40;9.30;;;;;;;;;;5056360;28;20201;-67
2022/11/14 05:07:04;;;;;;;15.27;9.67;;;;;;;;;;5065888;28;20255;-67
2022/11/14 05:09:49;;;;;;;14.77;8.77;;;;;;;;;;5064550;28;20260;-68
2022/11/14 05:12:53;;;;;;;15.60;9.87;;;;;;;;;;5046924;28;20670;-68
2022/11/14 05:15:38;;;;;;;14.60;8.97;;;;;;;;;;5032816;28;20196;-68
2022/11/14 05:18:42;;;;;;;15.70;9.10;;;;;;;;;;5056096;28;20279;-69
2022/11/14 05:21:31;;;;;;;17.77;9.33;;;;;;;;;;5038178;28;20280;-69
2022/11/14 05:24:18;;;;;;;15.20;9.13;;;;;;;;;;5045324;28;20885;-70
2022/11/14 05:27:03;;;;;;;19.67;10.27;;;;;;;;;;5060764;28;20304;-70
2022/11/14 05:29:49;;;;;;;16.77;9.70;;;;;;;;;;5044486;28;20198;-68
2022/11/14 05:32:34;;;;;;;16.20;9.20;;;;;;;;;;5046997;28;20217;-68
2022/11/14 05:35:37;;;;;;;15.70;9.37;;;;;;;;;;5063320;28;20205;-69
2022/11/14 05:38:22;;;;;;;15.73;9.37;;;;;;;;;;5065614;28;20213;-69
2022/11/14 05:41:08;;;;;;;17.90;10.40;;;;;;;;;;5060907;28;20209;-69
2022/11/14 05:43:53;;;;;;;20.37;10.93;;;;;;;;;;5052630;28;20194;-69
2022/11/14 05:46:39;;;;;;;18.00;10.83;;;;;;;;;;5057729;28;20201;-69
2022/11/14 05:49:23;;;;;;;18.93;11.07;;;;;;;;;;5049652;28;20903;-68
2022/11/14 05:52:09;;;;;;;21.43;11.73;;;;;;;;;;5058430;28;20206;-68
2022/11/14 05:54:54;;;;;;;18.30;11.53;;;;;;;;;;5048500;28;20229;-68
2022/11/14 05:57:40;;;;;;;23.13;12.83;;;;;;;;;;5039228;28;20224;-70
2022/11/14 06:00:25;;;;;;;20.87;12.70;;;;;;;;;;5051636;28;20228;-69
2022/11/14 06:03:10;;;;;;;20.70;11.90;;;;;;;;;;5053631;28;20198;-69
2022/11/14 06:05:55;;;;;;;20.60;11.87;;;;;;;;;;5063265;28;20216;-69
2022/11/14 06:08:41;;;;;;;22.97;12.07;;;;;;;;;;5068217;28;20898;-69
2022/11/14 06:11:26;;;;;;;21.33;13.17;;;;;;;;;;5069553;28;20205;-69
2022/11/14 06:14:12;;;;;;;28.03;15.53;;;;;;;;;;5071449;28;20732;-67
2022/11/14 06:16:57;;;;;;;24.07;12.73;;;;;;;;;;5057943;28;20238;-69
2022/11/14 06:19:43;;;;;;;23.07;13.57;;;;;;;;;;5071318;28;20332;-68
2022/11/14 06:22:28;;;;;;;24.33;13.17;;;;;;;;;;5052772;28;20298;-70
2022/11/14 06:25:13;;;;;;;23.80;13.33;;;;;;;;;;5053868;28;20202;-67
2022/11/14 06:27:59;;;;;;;23.07;14.07;;;;;;;;;;5067342;28;20202;-67
2022/11/14 06:30:44;;;;;;;23.90;14.77;;;;;;;;;;5057102;28;20676;-68
2022/11/14 06:33:32;;;;;;;29.23;13.90;;;;;;;;;;5071991;28;20202;-67
2022/11/14 06:36:17;;;;;;;26.53;15.73;;;;;;;;;;5059052;28;20194;-67
2022/11/14 06:39:03;;;;;;;24.70;14.83;;;;;;;;;;5051518;28;20214;-67
2022/11/14 06:41:48;;;;;;;24.30;13.80;;;;;;;;;;5058001;28;20212;-67
2022/11/14 06:44:33;;;;;;;27.23;14.57;;;;;;;;;;5068602;28;20197;-67
2022/11/14 06:47:18;;;;;;;26.57;13.93;;;;;;;;;;5064926;28;20953;-66
2022/11/14 06:50:04;;;;;;;24.97;14.47;;;;;;;;;;5068453;28;20208;-68
2022/11/14 06:52:50;;;;;;;37.43;19.03;;;;;;;;;;5058953;28;20377;-69
2022/11/14 06:55:35;;;;;;;37.20;19.37;;;;;;;;;;5065358;28;20305;-69
2022/11/14 06:58:20;;;;;;;28.40;15.27;;;;;;;;;;5036176;28;20218;-67
2022/11/14 07:01:06;;;;;;;27.20;14.93;;;;;;;;;;5036299;28;20201;-68
2022/11/14 07:03:52;;;;;;;26.70;15.07;;;;;;;;;;5048922;28;20285;-67
2022/11/14 07:06:37;;;;;;;30.53;16.27;;;;;;;;;;5047174;28;20206;-68
2022/11/14 07:09:22;;;;;;;29.80;17.00;;;;;;;;;;5028991;28;20673;-71
2022/11/14 07:12:08;;;;;;;26.07;15.13;;;;;;;;;;5035161;28;20339;-70
2022/11/14 07:14:53;;;;;;;25.50;13.93;;;;;;;;;;5053874;28;20561;-67
2022/11/14 07:17:39;;;;;;;24.07;12.83;;;;;;;;;;5030467;28;20232;-68
2022/11/14 07:20:24;;;;;;;23.47;12.80;;;;;;;;;;5049346;28;20263;-70
2022/11/14 07:23:10;;;;;;;19.97;12.53;;;;;;;;;;5041477;28;20566;-69
2022/11/14 07:25:58;;;;;;;21.57;12.13;;;;;;;;;;5043551;28;20312;-67
2022/11/14 07:28:43;;;;;;;24.60;13.57;;;;;;;;;;5022368;28;20302;-67
2022/11/14 07:31:35;;;;;;;23.47;13.47;;;;;;;;;;5020905;28;20202;-67
2022/11/14 07:34:19;;;;;;;23.33;13.43;;;;;;;;;;5044626;28;20261;-68
2022/11/14 07:37:05;;;;;;;21.87;12.57;;;;;;;;;;5038401;28;20339;-68
2022/11/14 07:39:50;;;;;;;20.13;12.20;;;;;;;;;;5052634;28;20280;-69
2022/11/14 07:42:35;;;;;;;19.93;11.87;;;;;;;;;;5052114;28;20210;-68
2022/11/14 07:45:21;;;;;;;19.37;11.47;;;;;;;;;;5037090;28;20194;-68
2022/11/14 07:48:06;;;;;;;20.23;11.50;;;;;;;;;;5055256;28;20220;-67
2022/11/14 07:50:52;;;;;;;19.87;11.73;;;;;;;;;;5058254;28;20281;-68
2022/11/14 07:53:37;;;;;;;23.10;12.80;;;;;;;;;;5059030;28;20704;-67
2022/11/14 07:56:24;;;;;;;23.20;12.40;;;;;;;;;;5070138;28;20309;-67
2022/11/14 07:59:09;;;;;;;20.87;12.83;;;;;;;;;;5055453;28;20213;-68
2022/11/14 08:01:54;;;;;;;22.40;12.20;;;;;;;;;;5054066;28;20201;-67
2022/11/14 08:04:40;;;;;;;19.93;12.80;;;;;;;;;;5036507;28;20201;-67
2022/11/14 08:07:25;;;;;;;20.80;11.73;;;;;;;;;;5055094;28;20213;-68
2022/11/14 08:10:13;;;;;;;20.43;11.87;;;;;;;;;;5070388;28;20222;-67
2022/11/14 08:12:59;;;;;;;19.40;11.43;;;;;;;;;;5051376;28;20241;-67
2022/11/14 08:16:05;;;;;;;19.80;11.17;;;;;;;;;;5036541;28;21081;-68
2022/11/14 08:18:57;;;;;;;20.40;11.67;;;;;;;;;;5048210;28;20345;-67
2022/11/14 08:21:42;;;;;;;18.60;11.27;;;;;;;;;;5052914;28;20193;-67
2022/11/14 08:24:28;;;;;;;17.63;11.87;;;;;;;;;;5069753;28;20205;-67
2022/11/14 08:27:13;;;;;;;19.17;12.20;;;;;;;;;;5055141;28;20197;-67
2022/11/14 08:29:58;;;;;;;19.00;11.50;;;;;;;;;;5069810;28;20182;-68
2022/11/14 08:32:43;;;;;;;18.27;11.27;;;;;;;;;;5069668;28;20208;-67
2022/11/14 08:35:29;;;;;;;15.70;10.37;;;;;;;;;;5049572;28;20205;-68
2022/11/14 08:38:14;;;;;;;18.73;11.50;;;;;;;;;;5049600;28;20225;-67
2022/11/14 08:41:00;;;;;;;17.70;10.00;;;;;;;;;;5049683;28;20193;-68
2022/11/14 08:43:45;;;;;;;16.63;10.40;;;;;;;;;;5033030;28;20206;-68
2022/11/14 08:46:31;;;;;;;17.77;10.10;;;;;;;;;;5049834;28;20672;-68
2022/11/14 08:49:16;;;;;;;14.80;9.33;;;;;;;;;;5029260;28;20209;-68
2022/11/14 08:52:02;;;;;;;14.33;9.13;;;;;;;;;;5061976;28;20578;-68
2022/11/14 08:54:47;;;;;;;13.73;9.00;;;;;;;;;;5066709;28;20719;-68
2022/11/14 08:57:32;;;;;;;14.50;9.57;;;;;;;;;;5069571;28;20209;-68
2022/11/14 09:00:18;;;;;;;13.97;9.20;;;;;;;;;;5069946;28;20286;-67
2022/11/14 09:03:07;;;;;;;12.47;8.37;;;;;;;;;;5069135;28;20616;-67
2022/11/14 09:05:53;;;;;;;14.37;8.17;;;;;;;;;;5069768;28;20251;-67
2022/11/14 09:08:38;;;;;;;12.57;8.17;;;;;;;;;;5049472;28;20732;-67
2022/11/14 09:11:23;;;;;;;12.57;8.13;;;;;;;;;;5049425;28;20668;-68
2022/11/14 09:14:08;;;;;;;15.33;7.90;;;;;;;;;;5048977;28;20210;-68
2022/11/14 09:17:11;;;;;;;12.70;7.93;;;;;;;;;;5049545;28;20542;-68
2022/11/14 09:19:56;;;;;;;9.47;7.10;;;;;;;;;;5047785;28;20316;-67
2022/11/14 09:22:41;;;;;;;11.23;7.07;;;;;;;;;;5053430;28;20344;-67
2022/11/14 09:25:30;;;;;;;9.90;6.60;;;;;;;;;;5053238;28;20213;-68
2022/11/14 09:28:15;;;;;;;12.00;7.43;;;;;;;;;;5053220;28;20645;-67
2022/11/14 09:31:02;;;;;;;12.40;7.47;;;;;;;;;;5056071;28;20921;-67
2022/11/14 09:33:47;;;;;;;10.73;7.40;;;;;;;;;;5066279;28;20743;-67
2022/11/14 09:36:32;;;;;;;11.67;6.97;;;;;;;;;;5073413;28;20623;-67
2022/11/14 09:39:18;;;;;;;11.47;7.03;;;;;;;;;;5056007;28;20222;-68
2022/11/14 09:42:13;;;;;;;11.77;6.87;;;;;;;;;;5052267;28;20237;-67
2022/11/14 09:45:02;;;;;;;10.77;7.50;;;;;;;;;;5053204;28;20930;-67
2022/11/14 09:47:48;;;;;;;22.77;13.50;;;;;;;;;;5064175;28;20694;-67
2022/11/14 09:50:35;;;;;;;11.50;7.93;;;;;;;;;;5057962;28;20197;-68
2022/11/14 09:53:31;;;;;;;11.20;7.77;;;;;;;;;;5043457;28;20228;-68
2022/11/14 09:56:26;;;;;;;11.07;7.53;;;;;;;;;;5060354;28;20197;-68
2022/11/14 09:59:11;;;;;;;11.70;7.90;;;;;;;;;;5072289;28;20225;-68
2022/11/14 10:02:00;;;;;;;10.73;6.90;;;;;;;;;;5057845;28;20201;-67
2022/11/14 10:04:51;;;;;;;10.70;7.77;;;;;;;;;;5057623;28;20213;-67
2022/11/14 10:07:39;;;;;;;11.87;8.10;;;;;;;;;;5057453;28;20278;-67
2022/11/14 10:10:28;;;;;;;10.87;7.60;;;;;;;;;;5070764;28;20205;-67
2022/11/14 10:13:30;;;;;;;11.17;7.70;;;;;;;;;;5052483;28;20384;-68
2022/11/14 10:16:22;;;;;;;12.73;7.43;;;;;;;;;;5072426;28;20602;-67
2022/11/14 10:19:37;;;;;;;13.80;8.23;;;;;;;;;;5071527;28;20252;-67
2022/11/14 10:22:26;;;;;;;11.53;8.30;;;;;;;;;;5052198;28;20201;-67
2022/11/14 10:25:15;;;;;;;12.57;8.23;;;;;;;;;;5037085;28;20201;-68
2022/11/14 10:28:03;;;;;;;14.43;8.93;;;;;;;;;;5050364;28;20209;-67
2022/11/14 10:30:51;;;;;;;12.70;8.73;;;;;;;;;;5051073;28;20219;-67
2022/11/14 10:33:41;;;;;;;13.10;8.93;;;;;;;;;;5052653;28;20256;-68
2022/11/14 10:36:45;;;;;;;13.87;9.43;;;;;;;;;;5051394;28;20717;-67
2022/11/14 10:39:30;;;;;;;12.93;8.57;;;;;;;;;;5051713;28;20225;-67
2022/11/14 10:42:34;;;;;;;14.27;10.00;;;;;;;;;;5052255;28;20194;-67
2022/11/14 10:45:27;;;;;;;14.83;9.77;;;;;;;;;;5069083;28;20225;-67
2022/11/14 10:48:13;;;;;;;13.17;9.43;;;;;;;;;;5057411;28;20201;-67
2022/11/14 10:51:00;;;;;;;14.93;9.40;;;;;;;;;;5056832;28;20216;-67
2022/11/14 10:53:50;;;;;;;13.23;9.07;;;;;;;;;;5062201;28;20232;-67
2022/11/14 10:56:49;;;;;;;15.33;9.63;;;;;;;;;;5061776;28;20240;-67
2022/11/14 10:59:35;;;;;;;15.17;10.40;;;;;;;;;;5056674;28;20224;-67
2022/11/14 11:02:20;;;;;;;15.93;10.73;;;;;;;;;;5071380;28;20684;-68
2022/11/14 11:05:15;;;;;;;13.30;9.83;;;;;;;;;;5071082;28;20212;-68
2022/11/14 11:11:31;;;;;;;13.60;9.80;;;;;;;;;;5066243;28;20228;-67
2022/11/14 11:14:17;;;;;;;16.03;10.47;;;;;;;;;;5057275;28;20255;-67
2022/11/14 11:17:11;;;;;;;14.87;10.20;;;;;;;;;;5071119;28;20676;-68
2022/11/14 11:19:57;;;;;;;14.83;10.03;;;;;;;;;;5055996;28;20236;-67
2022/11/14 11:22:42;;;;;;;17.90;11.13;;;;;;;;;;5070032;28;20275;-67
2022/11/14 11:25:28;;;;;;;17.40;10.73;;;;;;;;;;5070474;28;20189;-68
2022/11/14 11:28:17;;;;;;;17.30;10.27;;;;;;;;;;5062249;28;20190;-67
2022/11/14 11:31:03;;;;;;;17.20;11.03;;;;;;;;;;5041418;28;20775;-68
2022/11/14 11:33:48;;;;;;;15.13;10.20;;;;;;;;;;5070976;28;20196;-67
2022/11/14 11:36:35;;;;;;;14.63;10.77;;;;;;;;;;5055546;28;20274;-67
2022/11/14 11:39:22;;;;;;;15.53;10.03;;;;;;;;;;5069644;28;20274;-67
2022/11/14 11:42:08;;;;;;;16.20;10.90;;;;;;;;;;5050201;28;20570;-68
2022/11/14 11:44:57;;;;;;;15.57;11.47;;;;;;;;;;5050706;28;20197;-67
2022/11/14 11:47:49;;;;;;;16.97;11.20;;;;;;;;;;5049315;28;20206;-68
2022/11/14 11:50:52;;;;;;;16.97;12.03;;;;;;;;;;5050102;28;20217;-68
2022/11/14 11:53:54;;;;;;;17.03;12.33;;;;;;;;;;5050237;28;20229;-68
2022/11/14 11:56:58;;;;;;;15.70;11.53;;;;;;;;;;5041170;28;20194;-68
2022/11/14 11:59:48;;;;;;;17.53;11.77;;;;;;;;;;5043154;28;20259;-68
2022/11/14 12:02:33;;;;;;;16.63;11.83;;;;;;;;;;5046468;28;20182;-68
2022/11/14 12:05:22;;;;;;;17.57;12.37;;;;;;;;;;5049173;28;20198;-68
2022/11/14 12:08:16;;;;;;;18.83;13.77;;;;;;;;;;5050246;28;20727;-68
2022/11/14 12:11:05;;;;;;;17.23;12.43;;;;;;;;;;5049728;28;20209;-68
2022/11/14 12:13:57;;;;;;;21.23;14.73;;;;;;;;;;5049282;28;20648;-67
2022/11/14 12:16:54;;;;;;;20.47;13.97;;;;;;;;;;5065905;28;20209;-68
2022/11/14 12:19:39;;;;;;;22.37;14.63;;;;;;;;;;5069887;28;20221;-67
2022/11/14 12:22:48;;;;;;;21.47;14.37;;;;;;;;;;5069549;28;20205;-68
2022/11/14 12:25:39;;;;;;;21.70;14.60;;;;;;;;;;5068803;28;20271;-68
2022/11/14 12:28:43;;;;;;;19.77;13.40;;;;;;;;;;5070075;28;20360;-67
2022/11/14 12:31:31;;;;;;;22.63;14.30;;;;;;;;;;5059242;28;20293;-68
2022/11/14 12:34:27;;;;;;;18.90;13.00;;;;;;;;;;5048507;28;20206;-68
2022/11/14 12:37:23;;;;;;;22.80;15.00;;;;;;;;;;5049711;28;20287;-67
2022/11/14 12:40:22;;;;;;;22.43;15.37;;;;;;;;;;5048171;28;20601;-68
2022/11/14 12:43:34;;;;;;;23.87;14.60;;;;;;;;;;5048516;28;20780;-68
2022/11/14 12:46:22;;;;;;;18.43;14.10;;;;;;;;;;5049648;28;20727;-67
2022/11/14 12:49:26;;;;;;;23.93;15.00;;;;;;;;;;5049344;28;20292;-67
2022/11/14 12:52:37;;;;;;;20.50;14.20;;;;;;;;;;5049093;28;20201;-67
2022/11/14 12:55:24;;;;;;;23.57;15.43;;;;;;;;;;5049487;28;20202;-67
2022/11/14 12:58:14;;;;;;;21.03;14.07;;;;;;;;;;5054332;28;20198;-67
2022/11/14 13:01:02;;;;;;;21.27;13.90;;;;;;;;;;5043460;28;20198;-68
2022/11/14 13:04:02;;;;;;;18.67;13.43;;;;;;;;;;5049161;28;20198;-67
2022/11/14 13:07:00;;;;;;;23.20;14.80;;;;;;;;;;5049422;28;20201;-67
2022/11/14 13:10:04;;;;;;;19.23;13.10;;;;;;;;;;5049343;28;20206;-67
2022/11/14 13:22:39;;;;;;;21.03;14.00;;;;;;;;;;5048754;28;20255;-68
2022/11/14 13:25:24;;;;;;;18.93;13.33;;;;;;;;;;5049275;28;20217;-67
2022/11/14 13:28:28;;;;;;;20.17;14.27;;;;;;;;;;5048173;28;20676;-67
2022/11/14 13:31:14;;;;;;;19.93;13.67;;;;;;;;;;5049604;28;20225;-68
2022/11/14 13:33:59;;;;;;;19.40;14.17;;;;;;;;;;5049205;28;20205;-67
2022/11/14 13:37:17;;;;;;;21.83;16.00;;;;;;;;;;5048453;28;20557;-67
2022/11/14 13:40:21;;;;;;;19.23;13.63;;;;;;;;;;5039253;28;20589;-67
2022/11/14 13:43:25;;;;;;;22.20;15.23;;;;;;;;;;5048844;28;20204;-67
2022/11/14 13:46:14;;;;;;;22.23;15.50;;;;;;;;;;5049004;28;20197;-70
2022/11/14 13:49:12;;;;;;;21.63;15.50;;;;;;;;;;5034450;28;20198;-67
2022/11/14 13:51:57;;;;;;;21.97;16.00;;;;;;;;;;5033742;28;20206;-67
2022/11/14 13:54:46;;;;;;;25.57;16.77;;;;;;;;;;5033835;28;20229;-68
2022/11/14 13:57:45;;;;;;;23.67;16.57;;;;;;;;;;5033092;28;20673;-68
2022/11/14 14:00:57;;;;;;;22.83;16.03;;;;;;;;;;5053569;28;20212;-68
2022/11/14 14:03:50;;;;;;;25.77;15.97;;;;;;;;;;5049994;28;20206;-69
2022/11/14 14:06:36;;;;;;;23.93;16.70;;;;;;;;;;5041638;28;20229;-68
2022/11/14 14:09:26;;;;;;;25.63;17.63;;;;;;;;;;5071189;28;20291;-68
2022/11/14 14:12:16;;;;;;;25.87;17.67;;;;;;;;;;5071191;28;20213;-68
2022/11/14 14:15:03;;;;;;;24.87;18.63;;;;;;;;;;5056264;28;21029;-68
2022/11/14 14:18:00;;;;;;;23.97;16.33;;;;;;;;;;5055989;28;20312;-68
2022/11/14 14:20:46;;;;;;;23.67;17.20;;;;;;;;;;5070194;28;20233;-68
2022/11/14 14:23:31;;;;;;;25.20;17.87;;;;;;;;;;5057485;28;20193;-67
2022/11/14 14:26:19;;;;;;;26.50;18.93;;;;;;;;;;5069764;28;20225;-68
2022/11/14 14:29:26;;;;;;;24.57;17.97;;;;;;;;;;5071125;28;20569;-67
2022/11/14 14:32:12;;;;;;;29.23;18.90;;;;;;;;;;5071119;28;20197;-68
2022/11/14 14:35:29;;;;;;;27.93;19.57;;;;;;;;;;5058951;28;20181;-68
2022/11/14 14:38:25;;;;;;;31.00;19.23;;;;;;;;;;5069728;28;20196;-67
2022/11/14 14:41:29;;;;;;;32.07;21.37;;;;;;;;;;5040306;28;20935;-68
2022/11/14 14:44:20;;;;;;;32.40;21.97;;;;;;;;;;5059343;28;20209;-68
2022/11/14 14:47:29;;;;;;;32.93;20.00;;;;;;;;;;5057737;28;20235;-68
2022/11/14 14:50:16;;;;;;;32.23;19.43;;;;;;;;;;5070396;28;20213;-68
2022/11/14 14:53:01;;;;;;;31.53;20.47;;;;;;;;;;5069887;28;20229;-68
2022/11/14 14:55:56;;;;;;;36.10;22.80;;;;;;;;;;5055378;28;20204;-68
2022/11/14 14:58:41;;;;;;;36.50;23.37;;;;;;;;;;5047103;28;20210;-68
2022/11/14 15:01:33;;;;;;;37.67;24.13;;;;;;;;;;5054786;28;20205;-68
2022/11/14 15:04:19;;;;;;;37.40;24.07;;;;;;;;;;5065002;28;20206;-68
2022/11/14 15:07:04;;;;;;;41.57;25.13;;;;;;;;;;5063886;28;20420;-68
2022/11/14 15:09:54;;;;;;;38.60;24.73;;;;;;;;;;5070410;28;20235;-68
2022/11/14 15:12:39;;;;;;;40.03;25.57;;;;;;;;;;5069821;28;20221;-68
2022/11/14 15:15:24;;;;;;;39.37;24.87;;;;;;;;;;5037039;28;20200;-68
2022/11/14 15:18:21;;;;;;;43.93;26.00;;;;;;;;;;5056535;28;20733;-68
2022/11/14 15:21:26;;;;;;;41.53;26.83;;;;;;;;;;5057679;28;20269;-68
2022/11/14 15:24:13;;;;;;;43.37;26.73;;;;;;;;;;5055699;28;20209;-69
2022/11/14 15:27:01;;;;;;;40.63;26.07;;;;;;;;;;5069977;28;20228;-68
2022/11/14 15:29:48;;;;;;;40.43;26.47;;;;;;;;;;5052327;28;20204;-68
2022/11/14 15:32:33;;;;;;;44.17;26.77;;;;;;;;;;5068811;28;20201;-69
2022/11/14 15:35:18;;;;;;;41.83;28.13;;;;;;;;;;5069817;28;20229;-68
2022/11/14 15:38:09;;;;;;;45.17;28.83;;;;;;;;;;5068631;28;20201;-68
2022/11/14 15:41:21;;;;;;;41.37;26.70;;;;;;;;;;5069262;28;20697;-69
2022/11/14 15:44:26;;;;;;;46.43;27.80;;;;;;;;;;5054638;28;20201;-68
2022/11/14 15:47:13;;;;;;;41.30;25.83;;;;;;;;;;5062754;28;20248;-68
2022/11/14 15:50:02;;;;;;;41.60;25.87;;;;;;;;;;5050853;28;20291;-69
2022/11/14 15:52:48;;;;;;;42.23;25.93;;;;;;;;;;5052491;28;20283;-68
2022/11/14 15:55:33;;;;;;;46.10;28.00;;;;;;;;;;5054344;28;20672;-69
2022/11/14 15:58:18;;;;;;;44.03;26.07;;;;;;;;;;5062204;28;20296;-68
2022/11/14 16:01:24;;;;;;;38.70;24.53;;;;;;;;;;5065844;28;20303;-67
2022/11/14 16:04:12;;;;;;;42.07;26.90;;;;;;;;;;5055815;28;20298;-69
2022/11/14 16:06:58;;;;;;;45.20;26.57;;;;;;;;;;5067016;28;20197;-68
2022/11/14 16:09:44;;;;;;;44.60;26.47;;;;;;;;;;5050666;28;20312;-68
2022/11/14 16:12:30;;;;;;;44.30;26.60;;;;;;;;;;5032728;28;20181;-73
2022/11/14 16:15:17;;;;;;;46.50;27.93;;;;;;;;;;5060527;28;20562;-68
2022/11/14 16:18:04;;;;;;;49.93;29.27;;;;;;;;;;5047968;28;20222;-70
2022/11/14 16:20:50;;;;;;;48.47;29.17;;;;;;;;;;5045177;28;20717;-68
2022/11/14 16:23:35;;;;;;;45.37;29.67;;;;;;;;;;5036672;28;20588;-68
2022/11/14 16:26:20;;;;;;;52.97;29.93;;;;;;;;;;5066322;28;20342;-70
2022/11/14 16:29:06;;;;;;;47.50;28.70;;;;;;;;;;5065233;28;20201;-68
2022/11/14 16:31:54;;;;;;;48.30;29.17;;;;;;;;;;5063301;28;20286;-70
2022/11/14 16:34:39;;;;;;;48.17;27.73;;;;;;;;;;5046238;28;20302;-70
2022/11/14 16:37:25;;;;;;;47.37;28.17;;;;;;;;;;5065958;28;20950;-68
2022/11/14 16:40:15;;;;;;;55.90;29.13;;;;;;;;;;5059959;28;20284;-67
2022/11/14 16:43:01;;;;;;;47.83;29.33;;;;;;;;;;5051856;28;20692;-68
2022/11/14 16:45:46;;;;;;;50.60;31.10;;;;;;;;;;5058995;28;20217;-67
2022/11/14 16:48:34;;;;;;;47.37;29.73;;;;;;;;;;5066146;28;20308;-70